createdAt,value
2023-11-25T00:01:34.417Z,2.43
2023-11-25T00:04:05.376Z,3.13
2023-11-25T00:06:36.832Z,4.77
2023-11-25T00:09:09.815Z,3.57
2023-11-25T00:11:43.361Z,4.90
2023-11-25T00:14:14.107Z,5.10
2023-11-25T00:16:44.717Z,4.77
2023-11-25T00:19:16.282Z,5.00
2023-11-25T00:21:47.439Z,5.50
2023-11-25T00:24:18.002Z,5.70
2023-11-25T00:26:48.646Z,5.15
2023-11-25T00:29:19.337Z,3.60
2023-11-25T00:31:52.695Z,7.67
2023-11-25T00:34:25.613Z,6.20
2023-11-25T00:36:56.487Z,7.50
2023-11-25T00:39:28.400Z,3.03
2023-11-25T00:41:59.350Z,4.93
2023-11-25T00:44:32.542Z,6.10
2023-11-25T00:47:04.835Z,4.00
2023-11-25T00:49:37.040Z,4.00
2023-11-25T00:52:08.884Z,4.00
2023-11-25T00:54:40.526Z,4.97
2023-11-25T00:57:11.172Z,2.73
2023-11-25T00:59:41.625Z,3.60
2023-11-25T01:02:12.205Z,5.60
2023-11-25T01:04:43.948Z,2.60
2023-11-25T01:07:14.863Z,5.63
2023-11-25T01:09:45.360Z,4.87
2023-11-25T01:12:15.901Z,4.73
2023-11-25T01:17:48.633Z,4.80
2023-11-25T01:20:20.356Z,3.00
2023-11-25T01:22:51.543Z,4.43
2023-11-25T01:25:22.405Z,3.80
2023-11-25T01:27:54.733Z,1.80
2023-11-25T01:30:25.532Z,3.50
2023-11-25T01:32:56.181Z,3.27
2023-11-25T01:35:27.289Z,2.30
2023-11-25T01:37:57.783Z,2.60
2023-11-25T01:40:28.523Z,2.60
2023-11-25T01:42:59.695Z,2.63
2023-11-25T01:45:30.316Z,2.40
2023-11-25T01:48:04.133Z,3.83
2023-11-25T01:50:39.247Z,3.70
2023-11-25T01:53:11.172Z,4.77
2023-11-25T01:55:45.769Z,4.60
2023-11-25T01:58:17.618Z,3.93
2023-11-25T02:00:50.131Z,3.77
2023-11-25T02:03:20.936Z,3.07
2023-11-25T02:05:51.477Z,5.80
2023-11-25T02:08:23.979Z,4.97
2023-11-25T02:10:55.127Z,3.58
2023-11-25T02:13:27.958Z,4.00
2023-11-25T02:15:57.974Z,2.57
2023-11-25T02:18:28.606Z,4.50
2023-11-25T02:20:59.898Z,4.10
2023-11-25T02:23:32.669Z,3.43
2023-11-25T02:26:05.407Z,5.27
2023-11-25T02:28:36.955Z,3.00
2023-11-25T02:31:09.440Z,3.47
2023-11-25T02:33:41.430Z,5.83
2023-11-25T02:36:15.844Z,3.77
2023-11-25T02:38:46.911Z,2.17
2023-11-25T02:41:19.448Z,3.37
2023-11-25T02:43:50.137Z,3.17
2023-11-25T02:46:20.838Z,3.13
2023-11-25T02:48:52.182Z,5.07
2023-11-25T02:51:22.959Z,2.80
2023-11-25T02:53:55.663Z,3.30
2023-11-25T02:56:26.851Z,3.57
2023-11-25T02:58:58.598Z,2.47
2023-11-25T03:01:30.963Z,6.53
2023-11-25T03:04:03.613Z,2.93
2023-11-25T03:06:34.301Z,4.13
2023-11-25T03:09:06.637Z,3.50
2023-11-25T03:11:37.662Z,2.17
2023-11-25T03:14:08.958Z,4.03
2023-11-25T03:16:40.469Z,4.90
2023-11-25T03:19:12.107Z,4.87
2023-11-25T03:21:44.706Z,5.10
2023-11-25T03:24:17.249Z,4.53
2023-11-25T03:26:48.136Z,5.57
2023-11-25T03:29:19.910Z,3.70
2023-11-25T03:31:50.991Z,4.93
2023-11-25T03:34:22.611Z,4.17
2023-11-25T03:36:53.465Z,5.13
2023-11-25T03:39:24.047Z,3.37
2023-11-25T03:41:54.591Z,6.63
2023-11-25T03:44:26.063Z,5.30
2023-11-25T03:46:56.659Z,3.50
2023-11-25T03:49:27.734Z,2.70
2023-11-25T03:51:59.274Z,5.53
2023-11-25T03:54:29.880Z,5.70
2023-11-25T03:57:00.879Z,2.53
2023-11-25T03:59:31.303Z,5.63
2023-11-25T04:02:02.807Z,7.03
2023-11-25T04:04:33.610Z,3.33
2023-11-25T04:07:04.322Z,3.73
2023-11-25T04:09:35.288Z,4.15
2023-11-25T04:12:06.293Z,4.80
2023-11-25T04:14:36.763Z,4.77
2023-11-25T04:17:12.822Z,5.70
2023-11-25T04:19:42.404Z,5.50
2023-11-25T04:22:13.258Z,6.50
2023-11-25T04:24:43.839Z,7.17
2023-11-25T04:27:14.362Z,4.23
2023-11-25T04:29:44.985Z,7.47
2023-11-25T04:32:15.587Z,7.13
2023-11-25T04:34:46.132Z,5.30
2023-11-25T04:37:17.439Z,5.17
2023-11-25T04:39:48.004Z,8.13
2023-11-25T04:42:19.081Z,7.13
2023-11-25T04:44:51.525Z,6.27
2023-11-25T04:47:23.936Z,9.87
2023-11-25T04:49:54.526Z,6.63
2023-11-25T04:52:25.922Z,8.33
2023-11-25T04:54:56.474Z,5.57
2023-11-25T04:57:27.028Z,5.63
2023-11-25T04:59:57.618Z,5.77
2023-11-25T05:02:28.175Z,8.30
2023-11-25T05:04:58.770Z,6.07
2023-11-25T05:07:29.299Z,5.70
2023-11-25T05:10:00.063Z,7.50
2023-11-25T05:12:30.849Z,4.30
2023-11-25T05:15:01.430Z,4.90
2023-11-25T05:17:32.424Z,6.60
2023-11-25T05:20:03.304Z,5.10
2023-11-25T05:22:34.479Z,5.93
2023-11-25T05:25:06.739Z,5.10
2023-11-25T05:27:38.856Z,4.47
2023-11-25T05:30:13.176Z,7.90
2023-11-25T05:32:44.700Z,5.43
2023-11-25T05:35:15.922Z,6.57
2023-11-25T05:37:46.586Z,9.00
2023-11-25T05:40:17.549Z,6.67
2023-11-25T05:42:52.598Z,7.80
2023-11-25T05:45:24.878Z,6.73
2023-11-25T05:47:55.788Z,4.93
2023-11-25T05:50:28.112Z,6.53
2023-11-25T05:52:58.711Z,6.17
2023-11-25T05:55:30.884Z,5.20
2023-11-25T05:58:02.652Z,7.87
2023-11-25T06:00:33.381Z,5.90
2023-11-25T06:03:05.493Z,6.17
2023-11-25T06:05:36.800Z,6.37
2023-11-25T06:08:07.319Z,7.33
2023-11-25T06:10:38.684Z,4.90
2023-11-25T06:13:10.342Z,4.37
2023-11-25T06:15:41.066Z,6.10
2023-11-25T06:18:13.425Z,5.77
2023-11-25T06:20:44.969Z,6.20
2023-11-25T06:23:16.039Z,5.30
2023-11-25T06:25:46.772Z,7.80
2023-11-25T06:28:18.528Z,9.07
2023-11-25T06:30:50.914Z,5.77
2023-11-25T06:33:23.393Z,7.13
2023-11-25T06:35:58.181Z,6.17
2023-11-25T06:38:28.716Z,7.50
2023-11-25T06:40:59.730Z,10.13
2023-11-25T06:43:30.918Z,4.33
2023-11-25T06:46:01.572Z,5.83
2023-11-25T06:48:33.680Z,4.17
2023-11-25T06:51:04.925Z,6.87
2023-11-25T06:53:36.518Z,5.20
2023-11-25T06:56:16.761Z,7.30
2023-11-25T06:58:48.021Z,4.17
2023-11-25T07:01:23.159Z,8.77
2023-11-25T07:03:55.251Z,6.10
2023-11-25T07:06:25.998Z,3.93
2023-11-25T07:08:59.879Z,6.30
2023-11-25T07:11:32.696Z,6.13
2023-11-25T07:14:03.727Z,7.87
2023-11-25T07:16:35.666Z,8.63
2023-11-25T07:19:09.232Z,10.37
2023-11-25T07:21:40.206Z,7.37
2023-11-25T07:24:13.655Z,5.83
2023-11-25T07:26:47.633Z,6.03
2023-11-25T07:29:19.247Z,3.13
2023-11-25T07:31:49.914Z,7.13
2023-11-25T07:34:20.454Z,6.80
2023-11-25T07:36:51.242Z,6.00
2023-11-25T07:39:23.569Z,6.13
2023-11-25T07:41:58.821Z,5.77
2023-11-25T07:44:35.301Z,7.03
2023-11-25T07:47:06.985Z,8.80
2023-11-25T07:49:38.130Z,5.73
2023-11-25T07:52:11.567Z,7.77
2023-11-25T07:54:44.075Z,6.80
2023-11-25T07:57:14.683Z,5.73
2023-11-25T07:59:46.907Z,8.30
2023-11-25T08:02:20.261Z,7.60
2023-11-25T08:04:53.109Z,6.17
2023-11-25T08:07:24.925Z,6.77
2023-11-25T08:09:55.725Z,4.43
2023-11-25T08:12:26.378Z,7.57
2023-11-25T08:14:56.961Z,5.20
2023-11-25T08:17:28.439Z,6.47
2023-11-25T08:20:01.365Z,8.43
2023-11-25T08:22:33.543Z,6.80
2023-11-25T08:25:07.380Z,7.17
2023-11-25T08:27:40.692Z,6.53
2023-11-25T08:30:14.132Z,6.07
2023-11-25T08:32:46.435Z,6.40
2023-11-25T08:35:17.725Z,6.50
2023-11-25T08:37:49.966Z,4.30
2023-11-25T08:40:24.659Z,9.27
2023-11-25T08:42:56.757Z,7.47
2023-11-25T08:45:29.503Z,6.50
2023-11-25T08:48:00.673Z,6.10
2023-11-25T08:50:31.171Z,7.67
2023-11-25T08:53:03.819Z,7.10
2023-11-25T08:55:36.558Z,9.10
2023-11-25T08:58:08.600Z,7.13
2023-11-25T09:00:39.267Z,7.03
2023-11-25T09:03:11.200Z,6.67
2023-11-25T09:05:42.290Z,3.60
2023-11-25T09:08:13.080Z,4.62
2023-11-25T09:10:46.623Z,10.37
2023-11-25T09:13:19.766Z,4.50
2023-11-25T09:15:51.665Z,6.50
2023-11-25T09:18:22.289Z,5.17
2023-11-25T09:20:53.689Z,4.73
2023-11-25T09:23:25.633Z,6.05
2023-11-25T09:25:56.537Z,3.70
2023-11-25T09:28:28.850Z,7.22
2023-11-25T09:30:59.992Z,5.78
2023-11-25T09:33:33.475Z,8.73
2023-11-25T09:36:08.665Z,6.95
2023-11-25T09:38:40.774Z,4.23
2023-11-25T09:41:13.038Z,8.97
2023-11-25T09:43:44.582Z,4.67
2023-11-25T09:46:17.599Z,4.80
2023-11-25T09:48:48.447Z,6.00
2023-11-25T09:51:23.496Z,5.03
2023-11-25T09:53:58.653Z,4.33
2023-11-25T09:56:29.913Z,7.30
2023-11-25T09:59:01.397Z,9.27
2023-11-25T10:01:33.510Z,7.65
2023-11-25T10:04:04.287Z,5.58
2023-11-25T10:06:37.016Z,6.63
2023-11-25T10:09:14.596Z,6.65
2023-11-25T10:11:45.161Z,5.57
2023-11-25T10:14:18.654Z,10.10
2023-11-25T10:16:50.470Z,11.10
2023-11-25T10:19:23.911Z,4.58
2023-11-25T10:21:57.468Z,5.00
2023-11-25T10:24:31.057Z,3.97
2023-11-25T10:27:02.707Z,10.30
2023-11-25T10:29:33.826Z,8.48
2023-11-25T10:32:07.600Z,7.20
2023-11-25T10:34:38.237Z,8.00
2023-11-25T10:37:13.653Z,6.87
2023-11-25T10:39:45.350Z,7.65
2023-11-25T10:42:22.861Z,10.03
2023-11-25T10:44:54.137Z,5.03
2023-11-25T10:47:32.192Z,9.28
2023-11-25T10:50:02.881Z,4.97
2023-11-25T10:52:37.377Z,6.08
2023-11-25T10:55:10.508Z,9.15
2023-11-25T10:57:42.778Z,9.40
2023-11-25T11:00:15.429Z,6.40
2023-11-25T11:02:54.434Z,5.80
2023-11-25T11:05:40.685Z,5.47
2023-11-25T11:08:18.972Z,6.33
2023-11-25T11:11:00.151Z,5.12
2023-11-25T11:13:39.589Z,9.60
2023-11-25T11:16:13.720Z,5.43
2023-11-25T11:18:48.660Z,7.53
2023-11-25T11:21:21.452Z,5.53
2023-11-25T11:23:56.253Z,7.20
2023-11-25T11:26:33.314Z,7.45
2023-11-25T11:29:23.687Z,6.37
2023-11-25T11:32:08.365Z,6.12
2023-11-25T11:34:40.533Z,5.05
2023-11-25T11:37:11.692Z,4.22
2023-11-25T11:39:59.089Z,6.22
2023-11-25T11:42:33.705Z,5.83
2023-11-25T11:45:25.639Z,5.27
2023-11-25T11:48:00.921Z,5.80
2023-11-25T11:50:36.605Z,7.25
2023-11-25T11:53:18.478Z,3.97
2023-11-25T11:56:00.387Z,3.63
2023-11-25T11:58:32.119Z,4.25
2023-11-25T12:01:06.681Z,2.93
2023-11-25T12:03:39.683Z,3.67
2023-11-25T12:06:12.112Z,4.10
2023-11-25T12:08:42.593Z,3.72
2023-11-25T12:11:15.378Z,2.77
2023-11-25T12:13:45.990Z,3.08
2023-11-25T12:16:16.533Z,2.75
2023-11-25T12:18:47.093Z,2.50
2023-11-25T12:21:18.708Z,2.50
2023-11-25T12:23:53.822Z,2.55
2023-11-25T12:26:28.977Z,2.60
2023-11-25T12:29:02.983Z,2.60
2023-11-25T12:31:35.684Z,2.60
2023-11-25T12:34:06.972Z,3.43
2023-11-25T12:36:37.658Z,3.73
2023-11-25T12:39:09.920Z,3.27
2023-11-25T12:41:45.670Z,3.77
2023-11-25T12:44:17.673Z,3.62
2023-11-25T12:47:07.516Z,5.10
2023-11-25T12:49:38.406Z,4.33
2023-11-25T12:52:11.169Z,4.10
2023-11-25T12:54:45.813Z,4.03
2023-11-25T12:57:18.081Z,3.72
2023-11-25T12:59:48.595Z,3.73
2023-11-25T13:02:22.081Z,4.37
2023-11-25T13:04:52.728Z,4.35
2023-11-25T13:07:37.410Z,4.50
2023-11-25T13:10:09.280Z,4.08
2023-11-25T13:12:39.802Z,5.25
2023-11-25T13:15:10.556Z,3.93
2023-11-25T13:17:42.038Z,5.15
2023-11-25T13:20:13.627Z,3.80
2023-11-25T13:22:45.760Z,5.58
2023-11-25T13:25:17.305Z,3.77
2023-11-25T13:27:48.990Z,5.13
2023-11-25T13:30:22.077Z,7.73
2023-11-25T13:32:55.535Z,4.33
2023-11-25T13:35:26.083Z,4.95
2023-11-25T13:37:59.180Z,6.23
2023-11-25T13:40:31.770Z,5.28
2023-11-25T13:43:05.440Z,4.70
2023-11-25T13:45:36.452Z,7.17
2023-11-25T13:48:08.389Z,5.00
2023-11-25T13:50:39.106Z,4.30
2023-11-25T13:53:14.979Z,3.60
2023-11-25T13:55:48.047Z,4.67
2023-11-25T13:58:18.546Z,3.72
2023-11-25T14:00:49.284Z,3.47
2023-11-25T14:03:20.359Z,5.93
2023-11-25T14:05:51.193Z,5.17
2023-11-25T14:08:27.688Z,4.77
2023-11-25T14:10:59.498Z,5.12
2023-11-25T14:13:32.093Z,4.83
2023-11-25T14:16:04.377Z,7.87
2023-11-25T14:18:36.562Z,8.95
2023-11-25T14:21:07.759Z,7.83
2023-11-25T14:23:39.622Z,7.55
2023-11-25T14:26:11.329Z,6.67
2023-11-25T14:28:42.763Z,8.25
2023-11-25T14:31:17.255Z,9.87
2023-11-25T14:33:52.824Z,8.23
2023-11-25T14:36:23.777Z,11.67
2023-11-25T14:38:54.424Z,8.40
2023-11-25T14:41:26.332Z,6.33
2023-11-25T14:43:57.215Z,7.90
2023-11-25T14:46:29.028Z,9.40
2023-11-25T14:49:00.548Z,9.23
2023-11-25T14:51:31.637Z,9.33
2023-11-25T14:54:02.190Z,8.10
2023-11-25T14:56:35.415Z,6.47
2023-11-25T14:59:07.371Z,9.67
2023-11-25T15:01:39.574Z,9.20
2023-11-25T15:04:12.028Z,7.93
2023-11-25T15:06:44.902Z,9.57
2023-11-25T15:09:18.811Z,7.15
2023-11-25T15:11:49.826Z,8.63
2023-11-25T15:14:22.959Z,10.03
2023-11-25T15:16:54.432Z,7.08
2023-11-25T15:19:25.762Z,7.60
2023-11-25T15:21:58.469Z,7.53
2023-11-25T15:24:29.166Z,15.70
2023-11-25T15:27:03.843Z,6.03
2023-11-25T15:29:33.653Z,11.90
2023-11-25T15:32:05.831Z,7.87
2023-11-25T15:34:39.306Z,7.17
2023-11-25T15:37:10.590Z,11.55
2023-11-25T15:39:42.078Z,7.80
2023-11-25T15:42:14.721Z,9.03
2023-11-25T15:44:47.034Z,6.40
2023-11-25T15:47:19.388Z,8.30
2023-11-25T15:49:53.367Z,7.37
2023-11-25T15:52:25.483Z,10.40
2023-11-25T15:54:57.391Z,7.93
2023-11-25T15:57:30.009Z,7.23
2023-11-25T16:00:00.780Z,11.53
2023-11-25T16:02:31.514Z,8.30
2023-11-25T16:05:04.381Z,10.90
2023-11-25T16:07:35.189Z,9.20
2023-11-25T16:10:11.253Z,8.63
2023-11-25T16:12:42.381Z,7.90
2023-11-25T16:15:14.795Z,8.63
2023-11-25T16:17:47.359Z,7.50
2023-11-25T16:20:19.126Z,6.33
2023-11-25T16:22:50.759Z,9.23
2023-11-25T16:25:21.362Z,7.65
2023-11-25T16:27:52.764Z,9.00
2023-11-25T16:30:26.245Z,8.10
2023-11-25T16:32:56.925Z,7.93
2023-11-25T16:35:27.582Z,11.30
2023-11-25T16:37:58.127Z,10.23
2023-11-25T16:40:29.110Z,9.87
2023-11-25T16:43:02.499Z,22.00
2023-11-25T16:45:33.837Z,10.47
2023-11-25T16:48:05.789Z,25.27
2023-11-25T16:50:39.101Z,7.83
2023-11-25T16:53:10.175Z,12.18
2023-11-25T16:55:42.638Z,21.23
2023-11-25T16:58:15.476Z,12.00
2023-11-25T17:00:46.095Z,10.43
2023-11-25T17:03:16.887Z,10.33
2023-11-25T17:05:50.117Z,7.23
2023-11-25T17:08:22.141Z,10.38
2023-11-25T17:10:52.681Z,11.70
2023-11-25T17:13:26.289Z,11.87
2023-11-25T17:15:56.883Z,10.27
2023-11-25T17:18:29.097Z,8.80
2023-11-25T17:21:00.097Z,14.17
2023-11-25T17:23:30.697Z,10.53
2023-11-25T17:26:01.317Z,8.17
2023-11-25T17:28:31.929Z,10.40
2023-11-25T17:31:03.239Z,10.83
2023-11-25T17:33:35.418Z,8.53
2023-11-25T17:36:08.559Z,10.93
2023-11-25T17:38:39.778Z,8.63
2023-11-25T17:41:10.487Z,11.40
2023-11-25T17:43:41.095Z,10.20
2023-11-25T17:46:12.886Z,11.93
2023-11-25T17:48:46.380Z,11.80
2023-11-25T17:51:18.510Z,10.97
2023-11-25T17:53:49.288Z,8.60
2023-11-25T17:56:20.617Z,8.00
2023-11-25T17:58:51.506Z,7.33
2023-11-25T18:01:22.084Z,7.67
2023-11-25T18:03:53.337Z,9.23
2023-11-25T18:06:25.284Z,7.87
2023-11-25T18:08:55.875Z,8.27
2023-11-25T18:11:28.162Z,7.07
2023-11-25T18:14:00.303Z,6.30
2023-11-25T18:16:31.542Z,8.85
2023-11-25T18:19:04.284Z,5.90
2023-11-25T18:21:35.114Z,7.00
2023-11-25T18:24:06.723Z,5.67
2023-11-25T18:26:39.504Z,5.63
2023-11-25T18:29:10.227Z,6.87
2023-11-25T18:31:40.851Z,5.43
2023-11-25T18:34:13.332Z,5.58
2023-11-25T18:36:43.909Z,4.00
2023-11-25T18:39:15.298Z,3.75
2023-11-25T18:41:47.483Z,5.70
2023-11-25T18:44:18.518Z,5.00
2023-11-25T18:46:49.312Z,4.93
2023-11-25T18:49:20.396Z,3.80
2023-11-25T18:51:51.033Z,4.70
2023-11-25T18:54:23.095Z,3.20
2023-11-25T18:56:53.640Z,2.30
2023-11-25T18:59:25.609Z,2.87
2023-11-25T19:01:56.195Z,3.80
2023-11-25T19:04:26.740Z,4.63
2023-11-25T19:06:58.013Z,3.50
2023-11-25T19:09:28.554Z,3.20
2023-11-25T19:12:00.013Z,2.63
2023-11-25T19:14:33.013Z,3.60
2023-11-25T19:17:04.368Z,2.83
2023-11-25T19:19:37.117Z,3.93
2023-11-25T19:22:10.829Z,5.00
2023-11-25T19:24:40.282Z,3.70
2023-11-25T19:27:12.182Z,3.58
2023-11-25T19:29:46.019Z,4.30
2023-11-25T19:32:17.084Z,3.97
2023-11-25T19:34:47.693Z,3.63
2023-11-25T19:37:19.321Z,4.13
2023-11-25T19:39:49.851Z,3.83
2023-11-25T19:42:20.630Z,3.20
2023-11-25T19:44:53.298Z,5.40
2023-11-25T19:47:23.970Z,4.33
2023-11-25T19:49:54.700Z,3.33
2023-11-25T19:52:27.432Z,3.53
2023-11-25T19:54:59.452Z,2.87
2023-11-25T19:57:30.196Z,4.50
2023-11-25T20:00:00.848Z,2.70
2023-11-25T20:02:31.463Z,3.30
2023-11-25T20:05:02.238Z,3.77
2023-11-25T20:07:32.988Z,4.33
2023-11-25T20:10:05.029Z,3.70
2023-11-25T20:12:35.549Z,5.07
2023-11-25T20:15:07.291Z,4.03
2023-11-25T20:17:38.226Z,4.37
2023-11-25T20:20:10.984Z,4.00
2023-11-25T20:22:42.301Z,4.77
2023-11-25T20:25:13.332Z,7.57
2023-11-25T20:27:44.086Z,6.20
2023-11-25T20:30:15.643Z,5.07
2023-11-25T20:32:46.486Z,8.60
2023-11-25T20:35:17.148Z,5.63
2023-11-25T20:37:47.829Z,3.70
2023-11-25T20:40:18.447Z,3.43
2023-11-25T20:42:49.095Z,4.43
2023-11-25T20:45:20.012Z,3.93
2023-11-25T20:47:50.698Z,3.77
2023-11-25T20:50:24.120Z,6.03
2023-11-25T20:52:54.100Z,3.70
2023-11-25T20:55:26.580Z,3.20
2023-11-25T20:57:57.300Z,2.58
2023-11-25T21:00:29.733Z,2.47
2023-11-25T21:03:00.505Z,4.23
2023-11-25T21:05:33.511Z,2.90
2023-11-25T21:08:04.275Z,3.97
2023-11-25T21:10:35.422Z,3.43
2023-11-25T21:13:06.510Z,2.50
2023-11-25T21:15:37.538Z,3.20
2023-11-25T21:18:08.793Z,3.00
2023-11-25T21:20:41.177Z,2.97
2023-11-25T21:23:12.612Z,2.80
2023-11-25T21:25:43.295Z,3.90
2023-11-25T21:28:14.720Z,2.97
2023-11-25T21:30:46.984Z,4.43
2023-11-25T21:33:17.654Z,2.67
2023-11-25T21:35:50.738Z,3.60
2023-11-25T21:38:21.694Z,2.60
2023-11-25T21:40:52.095Z,3.53
2023-11-25T21:43:23.326Z,3.13
2023-11-25T21:45:55.132Z,3.20
2023-11-25T21:48:28.218Z,4.20
2023-11-25T21:50:59.472Z,4.37
2023-11-25T21:53:30.009Z,3.63
2023-11-25T21:56:01.005Z,2.50
2023-11-25T21:58:31.584Z,3.07
2023-11-25T22:01:05.987Z,3.00
2023-11-25T22:03:38.400Z,2.27
2023-11-25T22:06:09.876Z,3.20
2023-11-25T22:08:40.528Z,2.13
2023-11-25T22:11:11.325Z,2.57
2023-11-25T22:13:42.306Z,2.20
2023-11-25T22:16:12.829Z,3.07
2023-11-25T22:18:43.383Z,3.05
2023-11-25T22:21:14.063Z,3.57
2023-11-25T22:23:46.466Z,2.50
2023-11-25T22:26:22.197Z,2.03
2023-11-25T22:28:52.740Z,2.77
2023-11-25T22:31:23.488Z,4.47
2023-11-25T22:33:55.671Z,3.87
2023-11-25T22:36:28.551Z,3.02
2023-11-25T22:39:04.142Z,2.33
2023-11-25T22:41:35.133Z,3.17
2023-11-25T22:44:09.421Z,2.73
2023-11-25T22:46:41.824Z,2.00
2023-11-25T22:49:12.923Z,2.27
2023-11-25T22:51:43.638Z,2.30
2023-11-25T22:54:18.368Z,1.72
2023-11-25T22:56:51.689Z,1.80
2023-11-25T22:59:22.377Z,2.87
2023-11-25T23:01:59.131Z,1.97
2023-11-25T23:04:33.334Z,3.47
2023-11-25T23:07:04.149Z,3.25
2023-11-25T23:09:35.076Z,2.37
2023-11-25T23:12:06.887Z,3.90
2023-11-25T23:14:38.605Z,2.70
2023-11-25T23:17:10.392Z,2.22
2023-11-25T23:19:41.131Z,1.70
2023-11-25T23:22:11.975Z,2.33
2023-11-25T23:24:42.858Z,2.23
2023-11-25T23:27:15.138Z,2.60
2023-11-25T23:29:45.720Z,3.50
2023-11-25T23:32:16.533Z,2.43
2023-11-25T23:34:47.329Z,3.53
2023-11-25T23:37:18.102Z,3.05
2023-11-25T23:39:48.688Z,3.73
2023-11-25T23:42:19.316Z,3.70
2023-11-25T23:44:50.800Z,3.13
2023-11-25T23:47:21.568Z,4.03
2023-11-25T23:49:52.831Z,3.00
2023-11-25T23:52:25.899Z,3.80
2023-11-25T23:54:56.595Z,3.80
2023-11-25T23:57:27.273Z,3.83
2023-11-25T23:59:58.196Z,4.60
